Time;durP1;ratioP1;P1;durP2;ratioP2;P2;SDS_P1;SDS_P2;PMS_P1;PMS_P2;Temp;Humidity;BMP_temperature;BMP_pressure;BME280_temperature;BME280_humidity;BME280_pressure;Samples;Min_cycle;Max_cycle;Signal;HPM_P1;HPM_P2
2022/05/12 00:01:13;;;;;;;0.50;0.30;;;;;;;19.39;55.81;99922.00;4967446;28;20696;-70
2022/05/12 00:03:39;;;;;;;0.27;0.27;;;;;;;19.32;55.84;99918.94;4966831;28;20252;-70
2022/05/12 00:06:06;;;;;;;0.53;0.53;;;;;;;19.30;55.80;99920.88;4967520;28;20201;-70
2022/05/12 00:08:32;;;;;;;0.17;0.17;;;;;;;19.30;56.12;99918.22;4963020;28;20286;-70
2022/05/12 00:10:59;;;;;;;0.57;0.57;;;;;;;19.35;55.45;99918.72;4962190;28;20210;-70
2022/05/12 00:13:25;;;;;;;0.40;0.40;;;;;;;19.39;55.50;99922.81;4973508;28;20209;-70
2022/05/12 00:15:54;;;;;;;1.13;1.00;;;;;;;19.43;55.31;99920.78;4966124;28;20221;-70
2022/05/12 00:18:21;;;;;;;0.60;0.57;;;;;;;19.47;55.31;99917.81;4970258;28;20209;-70
2022/05/12 00:20:48;;;;;;;0.50;0.50;;;;;;;19.63;54.46;99916.66;4964980;28;20203;-70
2022/05/12 00:23:17;;;;;;;0.63;0.63;;;;;;;19.55;54.91;99909.31;4960383;28;20206;-70
2022/05/12 00:25:45;;;;;;;1.10;0.60;;;;;;;19.53;55.55;99910.41;4965759;28;20218;-70
2022/05/12 00:28:12;;;;;;;0.47;0.47;;;;;;;19.52;55.16;99917.47;4966113;28;20209;-70
2022/05/12 00:30:40;;;;;;;0.77;0.77;;;;;;;19.57;54.82;99911.84;4965654;28;20221;-70
2022/05/12 00:33:08;;;;;;;0.40;0.40;;;;;;;19.62;54.18;99915.81;4966670;28;20206;-70
2022/05/12 00:35:35;;;;;;;0.60;0.43;;;;;;;19.58;54.36;99916.19;4972606;28;20201;-70
2022/05/12 00:38:02;;;;;;;0.60;0.50;;;;;;;19.49;55.05;99918.53;4964879;28;20666;-70
2022/05/12 00:40:29;;;;;;;0.77;0.77;;;;;;;19.46;54.84;99920.56;4972855;28;20219;-70
2022/05/12 00:42:58;;;;;;;0.50;0.50;;;;;;;19.54;55.08;99920.00;4966784;28;20645;-70
2022/05/12 00:45:26;;;;;;;2.27;0.83;;;;;;;19.61;54.53;99919.44;4966348;28;20285;-70
2022/05/12 00:47:53;;;;;;;0.63;0.63;;;;;;;19.54;54.81;99922.63;4968171;28;20565;-70
2022/05/12 00:50:24;;;;;;;0.73;0.47;;;;;;;19.48;54.86;99916.84;4968987;28;20233;-70
2022/05/12 00:52:50;;;;;;;0.60;0.60;;;;;;;19.55;54.44;99919.06;4972294;28;20340;-70
2022/05/12 00:55:25;;;;;;;0.67;0.67;;;;;;;19.45;55.46;99921.53;4967801;28;20206;-70
2022/05/12 00:57:55;;;;;;;0.27;0.27;;;;;;;19.34;55.57;99914.41;4966590;28;20217;-70
2022/05/12 01:00:23;;;;;;;0.50;0.50;;;;;;;19.39;54.68;99919.34;4969595;28;20227;-70
2022/05/12 01:02:54;;;;;;;0.37;0.30;;;;;;;19.38;54.71;99915.00;4966721;28;20206;-70
2022/05/12 01:05:24;;;;;;;0.67;0.67;;;;;;;19.38;54.98;99923.78;4962019;28;20213;-70
2022/05/12 01:07:52;;;;;;;1.23;0.70;;;;;;;19.41;54.21;99920.91;4972817;28;20909;-70
2022/05/12 01:10:19;;;;;;;0.63;0.63;;;;;;;19.41;54.61;99909.50;4967529;28;20261;-70
2022/05/12 01:12:48;;;;;;;0.60;0.57;;;;;;;19.32;54.66;99913.66;4971000;28;20213;-70
2022/05/12 01:15:15;;;;;;;0.67;0.60;;;;;;;19.27;54.63;99913.16;4970483;28;20198;-70
2022/05/12 01:17:41;;;;;;;0.70;0.70;;;;;;;19.20;55.27;99919.84;4969192;28;20447;-70
2022/05/12 01:20:09;;;;;;;0.90;0.67;;;;;;;19.14;55.06;99921.16;4970144;28;20250;-70
2022/05/12 01:22:44;;;;;;;11.30;1.00;;;;;;;19.08;55.13;99914.53;4965883;28;20741;-70
2022/05/12 01:25:14;;;;;;;0.20;0.20;;;;;;;19.02;55.58;99914.97;4968558;28;20205;-70
2022/05/12 01:27:42;;;;;;;0.80;0.80;;;;;;;18.98;55.63;99915.28;4966260;28;20558;-70
2022/05/12 01:30:11;;;;;;;0.63;0.60;;;;;;;18.96;56.00;99915.41;4971996;28;20229;-70
2022/05/12 01:32:38;;;;;;;0.63;0.57;;;;;;;18.89;56.03;99909.72;4967873;28;20206;-70
2022/05/12 01:35:06;;;;;;;4.13;1.03;;;;;;;18.87;56.32;99909.00;4970280;28;20194;-70
2022/05/12 01:37:32;;;;;;;0.50;0.50;;;;;;;18.80;56.45;99914.78;4966346;28;20245;-70
2022/05/12 01:39:59;;;;;;;1.00;0.90;;;;;;;18.82;56.45;99910.25;4966578;28;20232;-70
2022/05/12 01:42:27;;;;;;;0.63;0.63;;;;;;;18.77;56.44;99910.59;4970146;28;20568;-70
2022/05/12 01:44:53;;;;;;;0.60;0.60;;;;;;;18.73;56.83;99914.38;4971711;28;20197;-70
2022/05/12 01:47:19;;;;;;;0.50;0.40;;;;;;;18.73;56.85;99907.31;4972592;28;20205;-70
2022/05/12 01:49:48;;;;;;;0.57;0.53;;;;;;;18.67;57.01;99904.25;4972163;28;20234;-70
2022/05/12 01:52:14;;;;;;;1.03;0.50;;;;;;;18.59;57.51;99906.59;4974967;28;20680;-70
2022/05/12 01:54:40;;;;;;;0.53;0.53;;;;;;;18.47;58.16;99918.88;4965998;28;20205;-70
2022/05/12 01:57:07;;;;;;;1.07;0.40;;;;;;;18.46;58.17;99922.47;4968250;28;20229;-70
2022/05/12 01:59:35;;;;;;;1.57;0.67;;;;;;;18.43;58.24;99915.59;4969676;28;20214;-70
2022/05/12 02:02:03;;;;;;;0.53;0.43;;;;;;;18.41;58.40;99920.13;4966345;28;20202;-70
2022/05/12 02:04:29;;;;;;;0.80;0.47;;;;;;;18.35;58.39;99917.94;4968898;28;20709;-70
2022/05/12 02:06:56;;;;;;;1.03;0.67;;;;;;;18.30;58.62;99920.88;4968339;28;20198;-70
2022/05/12 02:09:22;;;;;;;0.33;0.33;;;;;;;18.24;58.73;99929.25;4967808;28;20285;-70
2022/05/12 02:11:48;;;;;;;0.67;0.67;;;;;;;18.17;58.93;99933.25;4970541;28;20202;-70
2022/05/12 02:14:15;;;;;;;0.30;0.30;;;;;;;18.14;59.40;99933.47;4969130;28;20198;-70
2022/05/12 02:16:43;;;;;;;0.40;0.30;;;;;;;18.21;58.80;99937.38;4966712;28;20214;-70
2022/05/12 02:19:11;;;;;;;0.90;0.57;;;;;;;18.19;59.43;99938.41;4968998;28;20234;-70
2022/05/12 02:21:38;;;;;;;0.37;0.37;;;;;;;18.28;58.58;99943.06;4965156;28;20210;-70
2022/05/12 02:24:05;;;;;;;0.40;0.40;;;;;;;18.31;57.96;99946.34;4966902;28;20907;-70
2022/05/12 02:26:32;;;;;;;0.80;0.50;;;;;;;18.38;57.58;99946.75;4967065;28;20209;-70
2022/05/12 02:28:59;;;;;;;0.47;0.47;;;;;;;18.45;56.78;99945.38;4963780;28;20844;-70
2022/05/12 02:31:26;;;;;;;1.10;0.67;;;;;;;18.50;56.62;99951.19;4966346;28;20202;-70
2022/05/12 02:33:54;;;;;;;1.07;0.40;;;;;;;18.48;56.42;99957.50;4966438;28;20213;-70
2022/05/12 02:36:20;;;;;;;0.90;0.70;;;;;;;18.50;55.95;99953.84;4967845;28;20198;-70
2022/05/12 02:38:47;;;;;;;0.13;0.13;;;;;;;18.57;56.01;99954.22;4967795;28;20226;-70
2022/05/12 02:41:14;;;;;;;0.40;0.40;;;;;;;18.61;55.70;99957.50;4972702;28;20197;-70
2022/05/12 02:43:40;;;;;;;0.77;0.77;;;;;;;18.63;55.55;99953.81;4962912;28;20202;-70
2022/05/12 02:46:09;;;;;;;0.37;0.37;;;;;;;18.61;55.82;99953.06;4970714;28;20209;-70
2022/05/12 02:48:37;;;;;;;0.30;0.30;;;;;;;18.59;55.77;99964.69;4967497;28;20573;-70
2022/05/12 02:51:06;;;;;;;1.10;0.50;;;;;;;18.61;55.56;99970.69;4965904;28;20201;-70
2022/05/12 02:53:33;;;;;;;0.60;0.50;;;;;;;18.59;55.42;99968.19;4966210;28;20792;-70
2022/05/12 02:56:00;;;;;;;1.23;0.63;;;;;;;18.50;55.77;99971.44;4971807;28;20675;-70
2022/05/12 02:58:28;;;;;;;0.47;0.47;;;;;;;18.44;56.36;99971.88;4963839;28;20225;-70
2022/05/12 03:00:54;;;;;;;0.60;0.60;;;;;;;18.41;55.82;99980.84;4969061;28;20197;-70
2022/05/12 03:03:21;;;;;;;0.17;0.17;;;;;;;18.41;56.31;99985.28;4963630;28;20205;-70
2022/05/12 03:05:48;;;;;;;0.40;0.40;;;;;;;18.30;56.43;99981.56;4967549;28;20570;-70
2022/05/12 03:08:15;;;;;;;0.97;0.30;;;;;;;18.30;55.55;99984.22;4968801;28;20553;-70
2022/05/12 03:10:42;;;;;;;0.70;0.67;;;;;;;18.27;56.04;99994.97;4968690;28;20222;-70
2022/05/12 03:13:08;;;;;;;0.87;0.57;;;;;;;18.22;55.98;99994.44;4971946;28;20213;-70
2022/05/12 03:15:35;;;;;;;2.20;0.80;;;;;;;18.19;55.99;99997.31;4970060;28;20190;-70
2022/05/12 03:18:02;;;;;;;0.73;0.40;;;;;;;18.21;55.56;100002.50;4965968;28;20230;-70
2022/05/12 03:20:31;;;;;;;0.37;0.37;;;;;;;18.25;55.48;100004.78;4966892;28;20787;-70
2022/05/12 03:22:59;;;;;;;0.60;0.60;;;;;;;18.30;54.95;100012.41;4968535;28;20610;-70
2022/05/12 03:25:27;;;;;;;9.33;0.60;;;;;;;18.35;54.23;100015.59;4964064;28;20257;-70
2022/05/12 03:27:53;;;;;;;1.10;0.63;;;;;;;18.38;54.49;100025.94;4970285;28;20196;-70
2022/05/12 03:30:23;;;;;;;0.53;0.50;;;;;;;18.36;54.32;100022.53;4964611;28;20305;-70
2022/05/12 03:32:49;;;;;;;0.40;0.40;;;;;;;18.43;54.41;100036.16;4967796;28;20554;-70
2022/05/12 03:35:16;;;;;;;0.37;0.37;;;;;;;18.44;54.03;100043.13;4967412;28;20201;-70
2022/05/12 03:37:43;;;;;;;0.60;0.40;;;;;;;18.47;53.48;100045.56;4969525;28;20213;-70
2022/05/12 03:40:12;;;;;;;0.83;0.80;;;;;;;18.46;53.62;100055.28;4964086;28;20237;-70
2022/05/12 03:42:41;;;;;;;0.53;0.53;;;;;;;18.62;52.51;100075.34;4973694;28;20210;-70
2022/05/12 03:45:08;;;;;;;0.73;0.73;;;;;;;18.66;52.31;100082.97;4970709;28;20241;-70
2022/05/12 03:47:38;;;;;;;0.57;0.57;;;;;;;18.70;52.69;100086.22;4961873;28;20194;-70
2022/05/12 03:50:08;;;;;;;0.40;0.40;;;;;;;18.73;52.46;100099.19;4967673;28;20225;-70
2022/05/12 03:52:36;;;;;;;1.63;0.70;;;;;;;18.67;52.46;100115.47;4950176;28;20795;-70
2022/05/12 03:55:02;;;;;;;1.70;0.70;;;;;;;18.71;52.71;100120.47;4967445;28;20205;-70
2022/05/12 03:57:29;;;;;;;0.53;0.53;;;;;;;18.70;52.53;100133.75;4967376;28;20316;-70
2022/05/12 03:59:58;;;;;;;0.70;0.70;;;;;;;18.63;54.08;100146.53;4973411;28;20312;-70
2022/05/12 04:02:24;;;;;;;0.47;0.37;;;;;;;18.40;58.01;100161.25;4967474;28;20209;-70
2022/05/12 04:04:51;;;;;;;1.10;1.00;;;;;;;18.25;61.15;100151.72;4966832;28;20208;-70
2022/05/12 04:07:20;;;;;;;0.47;0.47;;;;;;;18.10;62.58;100164.97;4967465;28;20729;-70
2022/05/12 04:09:47;;;;;;;0.70;0.70;;;;;;;18.05;63.48;100188.16;4968902;28;20228;-70
2022/05/12 04:12:13;;;;;;;0.67;0.57;;;;;;;17.90;64.88;100205.78;4970253;28;20701;-70
2022/05/12 04:14:41;;;;;;;0.90;0.90;;;;;;;17.84;65.88;100213.22;4967537;28;20212;-70
2022/05/12 04:17:13;;;;;;;1.57;1.27;;;;;;;17.77;67.08;100221.50;4959524;28;20594;-70
2022/05/12 04:19:40;;;;;;;1.20;1.10;;;;;;;17.73;67.24;100243.75;4961695;28;20309;-70
2022/05/12 04:22:07;;;;;;;1.43;0.87;;;;;;;17.63;68.23;100237.34;4969234;28;20216;-70
2022/05/12 04:24:33;;;;;;;1.20;1.00;;;;;;;17.48;68.64;100241.75;4968945;28;20296;-70
2022/05/12 04:27:00;;;;;;;1.07;1.00;;;;;;;17.42;69.57;100250.88;4971453;28;20205;-70
2022/05/12 04:29:27;;;;;;;1.33;0.60;;;;;;;17.34;70.24;100244.38;4967205;28;20856;-70
2022/05/12 04:31:53;;;;;;;1.17;0.70;;;;;;;17.33;70.44;100247.97;4953501;28;20205;-70
2022/05/12 04:37:05;;;;;;;0.53;0.47;;;;;;;17.18;70.85;100247.97;4965643;28;20256;-70
2022/05/12 04:39:32;;;;;;;1.20;0.87;;;;;;;17.15;71.73;100252.53;4972392;28;20245;-70
2022/05/12 04:41:58;;;;;;;3.60;0.47;;;;;;;17.13;72.12;100259.69;4966953;28;20284;-70
2022/05/12 04:44:26;;;;;;;0.67;0.60;;;;;;;17.16;72.44;100257.72;4969051;28;20204;-70
2022/05/12 04:46:53;;;;;;;1.63;1.00;;;;;;;17.19;71.91;100270.72;4968755;28;20212;-70
2022/05/12 04:49:22;;;;;;;1.17;0.93;;;;;;;17.23;71.92;100268.75;4967607;28;20222;-69
2022/05/12 04:51:49;;;;;;;0.50;0.50;;;;;;;17.23;71.11;100274.84;4964967;28;20216;-70
2022/05/12 04:54:16;;;;;;;0.50;0.50;;;;;;;17.26;71.12;100273.00;4970334;28;20209;-70
2022/05/12 04:56:42;;;;;;;0.80;0.70;;;;;;;17.23;70.72;100280.13;4968100;28;20904;-70
2022/05/12 04:59:11;;;;;;;0.63;0.63;;;;;;;17.27;70.07;100288.69;4964847;28;20234;-70
2022/05/12 05:01:37;;;;;;;0.50;0.50;;;;;;;17.28;69.19;100277.22;4967084;28;20206;-70
2022/05/12 05:04:04;;;;;;;0.47;0.47;;;;;;;17.31;69.71;100297.28;4967043;28;20209;-70
2022/05/12 05:06:33;;;;;;;0.50;0.50;;;;;;;17.25;68.42;100301.09;4965552;28;20214;-70
2022/05/12 05:08:59;;;;;;;0.40;0.40;;;;;;;17.21;68.00;100321.50;4962389;28;20222;-70
2022/05/12 05:11:27;;;;;;;0.27;0.27;;;;;;;17.16;67.23;100318.28;4967201;28;20199;-70
2022/05/12 05:13:54;;;;;;;0.20;0.20;;;;;;;17.12;66.98;100316.78;4963128;28;20268;-70
2022/05/12 05:16:21;;;;;;;1.07;0.80;;;;;;;17.10;66.64;100317.84;4966237;28;20580;-70
2022/05/12 05:18:48;;;;;;;0.43;0.23;;;;;;;17.12;66.02;100327.31;4967727;28;20716;-70
2022/05/12 05:21:14;;;;;;;0.43;0.40;;;;;;;17.17;65.89;100325.28;4964199;28;20604;-70
2022/05/12 05:23:42;;;;;;;0.47;0.43;;;;;;;17.22;65.81;100322.38;4962739;28;20728;-70
2022/05/12 05:26:08;;;;;;;0.27;0.27;;;;;;;17.24;65.33;100325.78;4970593;28;20202;-70
2022/05/12 05:28:36;;;;;;;0.33;0.30;;;;;;;17.22;64.80;100338.19;4964055;28;20220;-69
2022/05/12 05:31:04;;;;;;;0.67;0.40;;;;;;;17.21;63.91;100353.13;4964486;28;20467;-70
2022/05/12 05:33:30;;;;;;;0.93;0.67;;;;;;;17.34;63.84;100360.31;4965397;28;20202;-70
2022/05/12 05:35:57;;;;;;;0.40;0.30;;;;;;;17.33;63.70;100359.47;4968210;28;20206;-70
2022/05/12 05:38:23;;;;;;;0.37;0.37;;;;;;;17.42;64.03;100373.91;4966675;28;20221;-70
2022/05/12 05:40:51;;;;;;;0.27;0.27;;;;;;;17.38;62.56;100381.13;4968024;28;20284;-70
2022/05/12 05:43:18;;;;;;;0.20;0.20;;;;;;;17.37;62.03;100375.94;4963762;28;20205;-70
2022/05/12 05:45:44;;;;;;;0.60;0.60;;;;;;;17.34;62.03;100382.25;4963355;28;20213;-70
2022/05/12 05:48:11;;;;;;;0.17;0.17;;;;;;;17.35;62.55;100391.00;4966426;28;20457;-70
2022/05/12 05:53:25;;;;;;;0.00;0.00;;;;;;;17.39;61.55;100403.91;4966221;28;20276;-70
2022/05/12 05:55:55;;;;;;;0.20;0.20;;;;;;;17.34;60.33;100405.97;4966908;28;20190;-70
2022/05/12 05:58:22;;;;;;;1.70;1.00;;;;;;;17.31;60.71;100421.13;4965875;28;20213;-70
2022/05/12 06:00:48;;;;;;;0.10;0.10;;;;;;;17.31;59.99;100423.75;4969448;28;20208;-70
2022/05/12 06:03:15;;;;;;;0.10;0.10;;;;;;;17.36;59.68;100441.00;4969878;28;20202;-70
2022/05/12 06:05:42;;;;;;;0.50;0.20;;;;;;;17.38;59.90;100438.28;4966989;28;20215;-70
2022/05/12 06:08:10;;;;;;;0.63;0.20;;;;;;;17.34;60.39;100448.13;4965558;28;20272;-70
2022/05/12 06:10:37;;;;;;;0.43;0.40;;;;;;;17.26;59.47;100453.00;4974698;28;20229;-70
2022/05/12 06:13:05;;;;;;;0.73;0.40;;;;;;;17.34;59.99;100461.31;4965016;28;20214;-70
2022/05/12 06:15:31;;;;;;;0.00;0.00;;;;;;;17.38;59.05;100454.91;4968698;28;20591;-70
2022/05/12 06:17:57;;;;;;;0.40;0.37;;;;;;;17.34;58.61;100463.06;4974730;28;20225;-70
2022/05/12 06:20:24;;;;;;;0.73;0.63;;;;;;;17.38;59.47;100475.16;4969352;28;20232;-70
2022/05/12 06:22:50;;;;;;;2.03;0.67;;;;;;;17.42;59.06;100474.88;4969186;28;20210;-70
2022/05/12 06:25:18;;;;;;;0.17;0.17;;;;;;;17.48;58.32;100478.94;4968964;28;20202;-70
2022/05/12 06:27:45;;;;;;;0.37;0.37;;;;;;;17.62;58.82;100478.16;4965792;28;20221;-69
2022/05/12 06:30:15;;;;;;;0.10;0.10;;;;;;;17.63;58.18;100493.03;4970162;28;20230;-70
2022/05/12 06:32:43;;;;;;;0.30;0.30;;;;;;;17.71;58.52;100498.75;4970215;28;20217;-70
2022/05/12 06:35:11;;;;;;;0.10;0.10;;;;;;;17.79;58.31;100506.19;4972685;28;20206;-70
2022/05/12 06:37:37;;;;;;;0.10;0.10;;;;;;;17.83;58.22;100502.41;4968947;28;20202;-70
2022/05/12 06:40:05;;;;;;;0.30;0.30;;;;;;;17.92;59.40;100507.22;4968194;28;20612;-70
2022/05/12 06:42:31;;;;;;;1.70;0.20;;;;;;;17.84;59.73;100512.03;4968956;28;20217;-70
2022/05/12 06:44:59;;;;;;;0.10;0.10;;;;;;;17.81;60.91;100516.66;4954200;28;20233;-70
2022/05/12 06:47:27;;;;;;;0.33;0.33;;;;;;;17.79;59.75;100520.22;4968830;28;20198;-70
2022/05/12 06:49:54;;;;;;;0.20;0.20;;;;;;;17.81;60.84;100530.69;4964456;28;20232;-70
2022/05/12 06:52:20;;;;;;;0.47;0.47;;;;;;;17.94;59.18;100539.63;4950849;28;20550;-70
2022/05/12 06:54:47;;;;;;;0.10;0.10;;;;;;;17.98;58.77;100543.75;4968304;28;20665;-70
2022/05/12 06:57:21;;;;;;;0.10;0.10;;;;;;;18.10;56.95;100549.25;4971928;28;20202;-70
2022/05/12 06:59:47;;;;;;;0.10;0.10;;;;;;;17.94;56.38;100560.72;4967164;28;20229;-70
2022/05/12 07:02:13;;;;;;;0.50;0.30;;;;;;;17.90;56.91;100561.81;4967746;28;20210;-70
2022/05/12 07:04:41;;;;;;;1.90;0.80;;;;;;;17.70;55.62;100586.66;4966372;28;20201;-70
2022/05/12 07:07:08;;;;;;;2.83;0.67;;;;;;;17.39;54.64;100585.72;4970120;28;20236;-70
2022/05/12 07:09:34;;;;;;;0.30;0.30;;;;;;;17.57;53.71;100601.47;4969242;28;20640;-70
2022/05/12 07:12:01;;;;;;;0.87;0.30;;;;;;;17.71;52.14;100596.28;4966410;28;20198;-70
2022/05/12 07:14:27;;;;;;;1.43;0.53;;;;;;;17.60;51.52;100615.31;4965897;28;20233;-70
2022/05/12 07:16:54;;;;;;;0.30;0.30;;;;;;;17.59;50.70;100621.53;4967426;28;20213;-70
2022/05/12 07:19:20;;;;;;;0.30;0.00;;;;;;;17.66;50.62;100626.47;4971760;28;20292;-70
2022/05/12 07:27:17;;;;;;;0.13;0.13;;;;;;;17.78;48.65;100645.09;4963979;28;20288;-70
2022/05/12 07:29:44;;;;;;;6.13;0.30;;;;;;;17.72;49.45;100647.22;4965246;28;20225;-70
2022/05/12 07:32:11;;;;;;;0.10;0.10;;;;;;;17.49;50.04;100662.53;4960226;28;20278;-70
2022/05/12 07:34:38;;;;;;;0.10;0.10;;;;;;;17.61;47.56;100668.91;4966282;28;20208;-70
2022/05/12 07:37:06;;;;;;;0.17;0.07;;;;;;;17.50;46.92;100674.78;4966519;28;20869;-70
2022/05/12 07:39:33;;;;;;;1.43;0.23;;;;;;;17.56;47.77;100681.50;4966564;28;20241;-70
2022/05/12 07:42:01;;;;;;;0.10;0.10;;;;;;;17.65;48.24;100696.81;4968404;28;20206;-70
2022/05/12 07:44:32;;;;;;;0.10;0.10;;;;;;;17.64;48.97;100691.59;4964661;28;20194;-70
2022/05/12 07:46:59;;;;;;;0.20;0.20;;;;;;;17.76;49.40;100702.34;4966800;28;20208;-70
2022/05/12 07:49:28;;;;;;;0.17;0.10;;;;;;;17.83;49.77;100691.44;4965183;28;20705;-70
2022/05/12 07:51:54;;;;;;;0.23;0.17;;;;;;;17.95;50.62;100696.06;4962892;28;20241;-70
2022/05/12 07:54:22;;;;;;;0.10;0.10;;;;;;;18.09;50.94;100708.50;4966295;28;20280;-70
2022/05/12 07:56:49;;;;;;;0.10;0.10;;;;;;;18.25;50.64;100711.13;4964803;28;20206;-70
2022/05/12 07:59:15;;;;;;;0.03;0.03;;;;;;;18.00;50.52;100714.28;4966906;28;20758;-70
2022/05/12 08:01:43;;;;;;;0.13;0.10;;;;;;;17.89;49.54;100731.56;4967862;28;20988;-70
2022/05/12 08:04:09;;;;;;;0.07;0.07;;;;;;;17.62;49.78;100736.50;4967381;28;20225;-70
2022/05/12 08:06:36;;;;;;;0.20;0.10;;;;;;;17.40;50.50;100745.56;4968168;28;20217;-70
2022/05/12 08:09:03;;;;;;;0.00;0.00;;;;;;;17.40;50.57;100744.72;4966639;28;20221;-70
2022/05/12 08:11:31;;;;;;;0.10;0.10;;;;;;;17.49;51.91;100746.88;4966337;28;20205;-70
2022/05/12 08:13:58;;;;;;;0.00;0.00;;;;;;;17.56;50.73;100764.06;4966213;28;20252;-70
2022/05/12 08:16:24;;;;;;;0.30;0.20;;;;;;;17.60;51.36;100764.75;4966759;28;20209;-70
2022/05/12 08:18:51;;;;;;;0.00;0.00;;;;;;;17.68;49.58;100781.00;4966982;28;20225;-70
2022/05/12 08:21:19;;;;;;;0.20;0.20;;;;;;;17.43;49.94;100789.38;4966205;28;20202;-70
2022/05/12 08:23:47;;;;;;;0.10;0.10;;;;;;;17.31;50.42;100793.50;4965924;28;20563;-70
2022/05/12 08:26:13;;;;;;;0.10;0.10;;;;;;;17.49;49.53;100794.31;4961523;28;20209;-70
2022/05/12 08:28:41;;;;;;;0.10;0.10;;;;;;;17.50;49.05;100795.16;4965992;28;20194;-70
2022/05/12 08:31:08;;;;;;;0.10;0.10;;;;;;;17.57;49.10;100802.69;4966420;28;20198;-69
2022/05/12 08:33:34;;;;;;;0.10;0.10;;;;;;;17.48;48.53;100813.69;4968865;28;20214;-70
2022/05/12 08:36:00;;;;;;;0.10;0.10;;;;;;;17.34;48.44;100818.81;4964368;28;20475;-70
2022/05/12 08:38:27;;;;;;;0.00;0.00;;;;;;;17.64;49.28;100819.00;4965855;28;20226;-70
2022/05/12 08:41:07;;;;;;;2.20;0.60;;;;;;;17.71;48.34;100828.31;4966328;28;20800;-70
2022/05/12 08:43:40;;;;;;;1.20;0.43;;;;;;;17.77;47.63;100837.69;4963013;28;20201;-70
2022/05/12 08:46:12;;;;;;;0.10;0.10;;;;;;;17.91;48.13;100842.25;4968976;28;20205;-70
2022/05/12 08:48:41;;;;;;;0.07;0.07;;;;;;;17.81;49.31;100847.13;4961650;28;20264;-70
2022/05/12 08:51:09;;;;;;;0.10;0.10;;;;;;;17.94;47.78;100842.06;4965870;28;20194;-70
2022/05/12 08:53:44;;;;;;;0.00;0.00;;;;;;;17.63;48.09;100851.59;4961031;28;20201;-70
2022/05/12 08:56:13;;;;;;;0.00;0.00;;;;;;;17.72;49.07;100855.53;4970575;28;20217;-70
2022/05/12 08:58:41;;;;;;;0.00;0.00;;;;;;;17.90;49.41;100845.81;4966204;28;20253;-70
2022/05/12 09:01:15;;;;;;;0.30;0.17;;;;;;;18.01;48.21;100855.78;4965821;28;20678;-70
2022/05/12 09:03:56;;;;;;;0.00;0.00;;;;;;;17.91;48.60;100851.00;4965735;28;20220;-70
2022/05/12 09:06:24;;;;;;;0.00;0.00;;;;;;;17.90;46.97;100867.75;4965970;28;20205;-70
2022/05/12 09:08:58;;;;;;;0.10;0.10;;;;;;;18.01;47.65;100882.16;4969038;28;20225;-70
2022/05/12 09:11:29;;;;;;;0.00;0.00;;;;;;;18.21;47.42;100875.84;4969684;28;20237;-70
2022/05/12 09:13:56;;;;;;;0.27;0.27;;;;;;;18.25;47.57;100880.84;4970623;28;20202;-70
2022/05/12 09:16:26;;;;;;;0.10;0.10;;;;;;;18.48;47.66;100882.22;4963122;28;20679;-70
2022/05/12 09:18:54;;;;;;;0.10;0.10;;;;;;;18.72;47.87;100882.66;4973467;28;20229;-70
2022/05/12 09:21:30;;;;;;;0.10;0.10;;;;;;;18.48;46.68;100881.38;4969094;28;20202;-70
2022/05/12 09:23:57;;;;;;;0.10;0.10;;;;;;;18.27;46.67;100888.69;4968469;28;20201;-70
2022/05/12 09:26:34;;;;;;;0.20;0.20;;;;;;;18.12;47.54;100891.22;4969129;28;20201;-70
2022/05/12 09:29:18;;;;;;;0.10;0.10;;;;;;;18.30;46.12;100897.28;4968798;28;20233;-70
2022/05/12 09:31:50;;;;;;;0.00;0.00;;;;;;;18.38;46.64;100898.66;4963634;28;20206;-70
2022/05/12 09:34:22;;;;;;;0.10;0.10;;;;;;;18.41;47.36;100894.06;4969047;28;20201;-70
2022/05/12 09:36:50;;;;;;;0.20;0.20;;;;;;;18.63;46.95;100900.81;4968106;28;20222;-70
2022/05/12 09:39:34;;;;;;;0.00;0.00;;;;;;;18.86;46.51;100910.97;4969640;28;20225;-70
2022/05/12 09:42:01;;;;;;;0.00;0.00;;;;;;;18.74;45.35;100915.13;4962419;28;20225;-70
2022/05/12 09:44:30;;;;;;;0.10;0.10;;;;;;;18.65;44.95;100918.28;4968743;28;20289;-70
2022/05/12 09:47:01;;;;;;;0.73;0.43;;;;;;;18.53;44.80;100927.72;4964156;28;20205;-70
2022/05/12 09:49:32;;;;;;;0.07;0.07;;;;;;;18.44;43.63;100927.38;4969734;28;20252;-70
2022/05/12 09:52:18;;;;;;;0.03;0.03;;;;;;;18.58;46.00;100916.06;4970352;28;20612;-70
2022/05/12 09:54:45;;;;;;;0.00;0.00;;;;;;;18.74;45.67;100928.31;4968933;28;20218;-70
2022/05/12 09:57:16;;;;;;;0.10;0.10;;;;;;;18.78;44.29;100921.06;4969299;28;20201;-70
2022/05/12 09:59:45;;;;;;;0.00;0.00;;;;;;;18.78;46.70;100910.50;4967951;28;20229;-70
2022/05/12 10:08:09;;;;;;;0.00;0.00;;;;;;;19.14;46.03;100906.78;4968622;28;20293;-70
2022/05/12 10:10:37;;;;;;;0.00;0.00;;;;;;;19.05;45.48;100900.22;4969177;28;20225;-70
2022/05/12 10:13:07;;;;;;;0.00;0.00;;;;;;;19.15;43.76;100903.16;4970218;28;20290;-70
2022/05/12 10:15:37;;;;;;;0.10;0.10;;;;;;;19.11;43.79;100905.13;4970071;28;20213;-70
2022/05/12 10:18:13;;;;;;;0.10;0.07;;;;;;;19.09;44.50;100899.09;4966128;28;20217;-70
2022/05/12 10:20:44;;;;;;;0.00;0.00;;;;;;;19.16;43.11;100907.53;4966925;28;20715;-70
2022/05/12 10:23:24;;;;;;;0.10;0.10;;;;;;;19.09;44.20;100909.66;4969357;28;20202;-70
2022/05/12 10:25:58;;;;;;;0.00;0.00;;;;;;;18.92;43.44;100905.31;4968460;28;20393;-70
2022/05/12 10:28:37;;;;;;;0.10;0.10;;;;;;;18.90;44.83;100914.28;4967513;28;20206;-70
2022/05/12 10:31:14;;;;;;;0.10;0.00;;;;;;;19.02;45.97;100908.31;4967545;28;20190;-70
2022/05/12 10:33:53;;;;;;;0.00;0.00;;;;;;;19.24;45.46;100917.66;4961614;28;20210;-70
2022/05/12 10:36:29;;;;;;;0.00;0.00;;;;;;;19.12;43.41;100924.50;4968444;28;20202;-70
2022/05/12 10:39:04;;;;;;;0.00;0.00;;;;;;;19.03;44.75;100910.03;4974409;28;20654;-70
2022/05/12 10:41:36;;;;;;;0.00;0.00;;;;;;;19.15;43.34;100915.53;4966875;28;20213;-70
2022/05/12 10:44:26;;;;;;;0.10;0.10;;;;;;;19.20;43.14;100913.47;4975226;28;20214;-70
2022/05/12 10:46:59;;;;;;;0.17;0.10;;;;;;;19.51;43.73;100916.97;4970989;28;20232;-70
2022/05/12 10:49:37;;;;;;;0.10;0.10;;;;;;;19.22;43.00;100915.09;4969025;28;20230;-70
2022/05/12 10:52:18;;;;;;;0.10;0.10;;;;;;;19.48;43.65;100910.09;4972047;28;20209;-70
2022/05/12 10:55:02;;;;;;;0.00;0.00;;;;;;;19.76;43.29;100927.00;4972294;28;20293;-70
2022/05/12 10:57:37;;;;;;;0.13;0.07;;;;;;;19.84;42.91;100916.78;4973414;28;20566;-70
2022/05/12 11:00:25;;;;;;;0.10;0.10;;;;;;;19.91;41.86;100918.13;4962044;28;20214;-70
2022/05/12 11:02:57;;;;;;;0.00;0.00;;;;;;;19.94;42.68;100912.63;4977004;28;20296;-70
2022/05/12 11:05:31;;;;;;;0.03;0.03;;;;;;;20.25;42.51;100910.75;4965765;28;20293;-70
2022/05/12 11:08:05;;;;;;;0.00;0.00;;;;;;;19.97;40.98;100914.25;4969700;28;20594;-70
2022/05/12 11:10:38;;;;;;;0.00;0.00;;;;;;;20.07;40.37;100917.19;4960091;28;20221;-70
2022/05/12 11:13:11;;;;;;;0.07;0.07;;;;;;;20.01;41.74;100924.53;4974346;28;20300;-70
2022/05/12 11:15:47;;;;;;;0.03;0.03;;;;;;;20.21;40.75;100919.81;4968235;28;20579;-70
2022/05/12 11:18:19;;;;;;;1.43;0.10;;;;;;;20.27;39.97;100921.25;4968602;28;20213;-70
2022/05/12 11:20:55;;;;;;;0.20;0.10;;;;;;;20.17;41.37;100920.97;4973540;28;20228;-70
2022/05/12 11:23:34;;;;;;;0.03;0.03;;;;;;;20.26;41.39;100925.69;4963416;28;20245;-70
2022/05/12 11:26:09;;;;;;;0.10;0.10;;;;;;;20.45;41.20;100929.84;4962896;28;20266;-70
2022/05/12 11:31:32;;;;;;;0.20;0.20;;;;;;;20.59;39.96;100928.00;4967778;28;20221;-70
2022/05/12 11:34:04;;;;;;;0.10;0.10;;;;;;;20.62;40.26;100927.03;4968990;28;20213;-70
2022/05/12 11:36:40;;;;;;;0.03;0.03;;;;;;;20.45;38.77;100938.63;4973856;28;20224;-70
2022/05/12 11:39:23;;;;;;;0.00;0.00;;;;;;;20.60;39.87;100935.03;4966771;28;20225;-70
2022/05/12 11:42:07;;;;;;;0.07;0.07;;;;;;;20.74;38.61;100939.47;4973816;28;20208;-70
2022/05/12 11:44:39;;;;;;;0.00;0.00;;;;;;;20.70;38.45;100938.00;4967470;28;20601;-70
2022/05/12 11:47:44;;;;;;;0.20;0.10;;;;;;;20.76;36.46;100936.75;4965927;28;20831;-70
2022/05/12 11:50:34;;;;;;;0.00;0.00;;;;;;;20.86;37.11;100935.19;4963483;28;20213;-70
2022/05/12 11:53:12;;;;;;;0.00;0.00;;;;;;;20.72;36.40;100951.09;4965676;28;20202;-70
2022/05/12 11:55:57;;;;;;;0.00;0.00;;;;;;;20.54;37.27;100940.69;4967347;28;20205;-70